sensor_id;sensor_type;location;lat;lon;timestamp;P1;durP1;ratioP1;P2;durP2;ratioP2
37339;SDS011;23223;51.006;7.610;2023-07-29T00:01:48;3.63;;;1.00;;
37339;SDS011;23223;51.006;7.610;2023-07-29T00:04:15;3.17;;;1.70;;
37339;SDS011;23223;51.006;7.610;2023-07-29T00:06:42;1.75;;;1.55;;
37339;SDS011;23223;51.006;7.610;2023-07-29T00:09:09;1.55;;;1.38;;
37339;SDS011;23223;51.006;7.610;2023-07-29T00:11:35;1.90;;;1.38;;
37339;SDS011;23223;51.006;7.610;2023-07-29T00:14:02;2.70;;;1.67;;
37339;SDS011;23223;51.006;7.610;2023-07-29T00:16:28;3.47;;;1.10;;
37339;SDS011;23223;51.006;7.610;2023-07-29T00:18:55;2.92;;;1.00;;
37339;SDS011;23223;51.006;7.610;2023-07-29T00:21:22;1.48;;;1.25;;
37339;SDS011;23223;51.006;7.610;2023-07-29T00:23:49;2.20;;;1.35;;
37339;SDS011;23223;51.006;7.610;2023-07-29T00:26:15;1.30;;;1.20;;
37339;SDS011;23223;51.006;7.610;2023-07-29T00:28:42;4.18;;;1.60;;
37339;SDS011;23223;51.006;7.610;2023-07-29T00:31:08;3.92;;;1.60;;
37339;SDS011;23223;51.006;7.610;2023-07-29T00:33:36;3.25;;;1.48;;
37339;SDS011;23223;51.006;7.610;2023-07-29T00:36:03;2.30;;;1.48;;
37339;SDS011;23223;51.006;7.610;2023-07-29T00:38:30;3.85;;;1.23;;
37339;SDS011;23223;51.006;7.610;2023-07-29T00:40:58;1.08;;;1.00;;
37339;SDS011;23223;51.006;7.610;2023-07-29T00:43:29;1.27;;;0.98;;
37339;SDS011;23223;51.006;7.610;2023-07-29T00:45:55;3.72;;;1.35;;
37339;SDS011;23223;51.006;7.610;2023-07-29T00:48:23;5.38;;;1.40;;
37339;SDS011;23223;51.006;7.610;2023-07-29T00:50:50;1.08;;;0.98;;
37339;SDS011;23223;51.006;7.610;2023-07-29T00:53:17;1.42;;;1.05;;
37339;SDS011;23223;51.006;7.610;2023-07-29T00:55:44;4.68;;;1.27;;
37339;SDS011;23223;51.006;7.610;2023-07-29T00:58:11;1.70;;;1.15;;
37339;SDS011;23223;51.006;7.610;2023-07-29T01:00:38;1.63;;;1.10;;
37339;SDS011;23223;51.006;7.610;2023-07-29T01:03:05;1.40;;;1.30;;
37339;SDS011;23223;51.006;7.610;2023-07-29T01:05:45;0.80;;;0.80;;
37339;SDS011;23223;51.006;7.610;2023-07-29T01:08:31;1.20;;;1.10;;
37339;SDS011;23223;51.006;7.610;2023-07-29T01:14:01;1.00;;;0.90;;
37339;SDS011;23223;51.006;7.610;2023-07-29T01:16:47;3.00;;;0.93;;
37339;SDS011;23223;51.006;7.610;2023-07-29T01:22:33;2.70;;;0.88;;
37339;SDS011;23223;51.006;7.610;2023-07-29T01:25:00;5.30;;;1.25;;
37339;SDS011;23223;51.006;7.610;2023-07-29T01:27:28;4.88;;;1.40;;
37339;SDS011;23223;51.006;7.610;2023-07-29T01:29:54;2.75;;;1.17;;
37339;SDS011;23223;51.006;7.610;2023-07-29T01:37:34;4.68;;;1.33;;
37339;SDS011;23223;51.006;7.610;2023-07-29T01:40:03;2.78;;;1.00;;
37339;SDS011;23223;51.006;7.610;2023-07-29T01:42:34;3.58;;;1.15;;
37339;SDS011;23223;51.006;7.610;2023-07-29T01:45:02;0.80;;;0.70;;
37339;SDS011;23223;51.006;7.610;2023-07-29T01:47:29;0.80;;;0.80;;
37339;SDS011;23223;51.006;7.610;2023-07-29T01:49:56;1.15;;;0.93;;
37339;SDS011;23223;51.006;7.610;2023-07-29T01:52:23;2.75;;;1.33;;
37339;SDS011;23223;51.006;7.610;2023-07-29T01:54:50;5.97;;;1.00;;
37339;SDS011;23223;51.006;7.610;2023-07-29T01:57:17;2.67;;;1.25;;
37339;SDS011;23223;51.006;7.610;2023-07-29T01:59:44;5.65;;;1.13;;
37339;SDS011;23223;51.006;7.610;2023-07-29T02:02:11;4.25;;;1.30;;
37339;SDS011;23223;51.006;7.610;2023-07-29T02:04:37;3.88;;;1.40;;
37339;SDS011;23223;51.006;7.610;2023-07-29T02:07:04;5.25;;;1.30;;
37339;SDS011;23223;51.006;7.610;2023-07-29T02:09:31;5.53;;;1.33;;
37339;SDS011;23223;51.006;7.610;2023-07-29T02:11:57;2.15;;;1.27;;
37339;SDS011;23223;51.006;7.610;2023-07-29T02:14:24;2.00;;;0.90;;
37339;SDS011;23223;51.006;7.610;2023-07-29T02:16:53;1.10;;;1.00;;
37339;SDS011;23223;51.006;7.610;2023-07-29T02:19:20;1.63;;;0.80;;
37339;SDS011;23223;51.006;7.610;2023-07-29T02:21:47;1.38;;;1.27;;
37339;SDS011;23223;51.006;7.610;2023-07-29T02:24:14;1.20;;;0.77;;
37339;SDS011;23223;51.006;7.610;2023-07-29T02:26:49;2.65;;;1.35;;
37339;SDS011;23223;51.006;7.610;2023-07-29T02:29:16;3.10;;;1.02;;
37339;SDS011;23223;51.006;7.610;2023-07-29T02:31:43;2.40;;;1.20;;
37339;SDS011;23223;51.006;7.610;2023-07-29T02:34:10;1.65;;;1.30;;
37339;SDS011;23223;51.006;7.610;2023-07-29T02:36:39;1.58;;;1.20;;
37339;SDS011;23223;51.006;7.610;2023-07-29T02:39:05;4.03;;;0.93;;
37339;SDS011;23223;51.006;7.610;2023-07-29T02:41:32;0.90;;;0.90;;
37339;SDS011;23223;51.006;7.610;2023-07-29T02:43:59;5.35;;;0.90;;
37339;SDS011;23223;51.006;7.610;2023-07-29T02:46:27;1.35;;;1.10;;
37339;SDS011;23223;51.006;7.610;2023-07-29T02:48:54;2.70;;;0.77;;
37339;SDS011;23223;51.006;7.610;2023-07-29T02:51:22;3.28;;;1.20;;
37339;SDS011;23223;51.006;7.610;2023-07-29T02:53:48;0.88;;;0.80;;
37339;SDS011;23223;51.006;7.610;2023-07-29T02:56:14;3.58;;;1.75;;
37339;SDS011;23223;51.006;7.610;2023-07-29T02:58:41;4.82;;;1.20;;
37339;SDS011;23223;51.006;7.610;2023-07-29T03:01:09;2.67;;;1.25;;
37339;SDS011;23223;51.006;7.610;2023-07-29T03:03:35;3.47;;;1.42;;
37339;SDS011;23223;51.006;7.610;2023-07-29T03:06:06;0.98;;;0.90;;
37339;SDS011;23223;51.006;7.610;2023-07-29T03:08:34;6.90;;;1.42;;
37339;SDS011;23223;51.006;7.610;2023-07-29T03:11:11;8.95;;;1.40;;
37339;SDS011;23223;51.006;7.610;2023-07-29T03:13:39;2.38;;;1.30;;
37339;SDS011;23223;51.006;7.610;2023-07-29T03:16:06;2.90;;;1.30;;
37339;SDS011;23223;51.006;7.610;2023-07-29T03:18:36;1.55;;;1.10;;
37339;SDS011;23223;51.006;7.610;2023-07-29T03:21:03;1.98;;;0.80;;
37339;SDS011;23223;51.006;7.610;2023-07-29T03:23:31;3.22;;;1.35;;
37339;SDS011;23223;51.006;7.610;2023-07-29T03:25:59;3.95;;;1.10;;
37339;SDS011;23223;51.006;7.610;2023-07-29T03:28:32;1.30;;;1.17;;
37339;SDS011;23223;51.006;7.610;2023-07-29T03:30:59;2.80;;;1.05;;
37339;SDS011;23223;51.006;7.610;2023-07-29T03:33:26;3.40;;;0.98;;
37339;SDS011;23223;51.006;7.610;2023-07-29T03:35:53;1.45;;;0.90;;
37339;SDS011;23223;51.006;7.610;2023-07-29T03:38:20;4.70;;;1.25;;
37339;SDS011;23223;51.006;7.610;2023-07-29T03:40:48;6.82;;;1.48;;
37339;SDS011;23223;51.006;7.610;2023-07-29T03:43:15;2.20;;;1.20;;
37339;SDS011;23223;51.006;7.610;2023-07-29T03:45:42;2.70;;;1.20;;
37339;SDS011;23223;51.006;7.610;2023-07-29T03:48:08;1.38;;;1.10;;
37339;SDS011;23223;51.006;7.610;2023-07-29T03:50:38;0.98;;;0.75;;
37339;SDS011;23223;51.006;7.610;2023-07-29T03:53:05;3.92;;;1.45;;
37339;SDS011;23223;51.006;7.610;2023-07-29T03:55:35;2.75;;;1.33;;
37339;SDS011;23223;51.006;7.610;2023-07-29T03:58:02;3.97;;;1.50;;
37339;SDS011;23223;51.006;7.610;2023-07-29T04:00:28;11.32;;;1.20;;
37339;SDS011;23223;51.006;7.610;2023-07-29T04:02:55;2.67;;;1.20;;
37339;SDS011;23223;51.006;7.610;2023-07-29T04:05:22;3.50;;;1.23;;
37339;SDS011;23223;51.006;7.610;2023-07-29T04:07:49;5.68;;;1.00;;
37339;SDS011;23223;51.006;7.610;2023-07-29T04:10:14;1.08;;;0.98;;
37339;SDS011;23223;51.006;7.610;2023-07-29T04:12:41;5.65;;;1.05;;
37339;SDS011;23223;51.006;7.610;2023-07-29T04:15:08;4.18;;;1.30;;
37339;SDS011;23223;51.006;7.610;2023-07-29T04:17:34;3.28;;;1.77;;
37339;SDS011;23223;51.006;7.610;2023-07-29T04:20:01;2.30;;;0.90;;
37339;SDS011;23223;51.006;7.610;2023-07-29T04:22:27;2.47;;;1.20;;
37339;SDS011;23223;51.006;7.610;2023-07-29T04:24:54;2.55;;;1.50;;
37339;SDS011;23223;51.006;7.610;2023-07-29T04:27:20;1.38;;;1.00;;
37339;SDS011;23223;51.006;7.610;2023-07-29T04:29:46;2.90;;;1.48;;
37339;SDS011;23223;51.006;7.610;2023-07-29T04:32:12;2.45;;;1.17;;
37339;SDS011;23223;51.006;7.610;2023-07-29T04:34:37;1.58;;;1.40;;
37339;SDS011;23223;51.006;7.610;2023-07-29T04:37:03;2.38;;;1.20;;
37339;SDS011;23223;51.006;7.610;2023-07-29T04:39:29;1.73;;;1.38;;
37339;SDS011;23223;51.006;7.610;2023-07-29T04:41:55;1.17;;;0.75;;
37339;SDS011;23223;51.006;7.610;2023-07-29T04:44:22;1.27;;;1.17;;
37339;SDS011;23223;51.006;7.610;2023-07-29T04:46:48;2.08;;;1.10;;
37339;SDS011;23223;51.006;7.610;2023-07-29T04:49:14;1.63;;;0.90;;
37339;SDS011;23223;51.006;7.610;2023-07-29T04:51:40;2.15;;;1.38;;
37339;SDS011;23223;51.006;7.610;2023-07-29T04:54:06;4.82;;;1.80;;
37339;SDS011;23223;51.006;7.610;2023-07-29T04:56:32;6.25;;;1.90;;
37339;SDS011;23223;51.006;7.610;2023-07-29T04:58:58;3.92;;;1.50;;
37339;SDS011;23223;51.006;7.610;2023-07-29T05:01:23;2.83;;;1.83;;
37339;SDS011;23223;51.006;7.610;2023-07-29T05:03:50;1.65;;;1.42;;
37339;SDS011;23223;51.006;7.610;2023-07-29T05:06:16;2.17;;;2.00;;
37339;SDS011;23223;51.006;7.610;2023-07-29T05:08:42;3.85;;;1.60;;
37339;SDS011;23223;51.006;7.610;2023-07-29T05:11:08;1.35;;;1.00;;
37339;SDS011;23223;51.006;7.610;2023-07-29T05:13:35;2.42;;;1.55;;
37339;SDS011;23223;51.006;7.610;2023-07-29T05:16:02;2.33;;;2.03;;
37339;SDS011;23223;51.006;7.610;2023-07-29T05:18:29;2.72;;;2.08;;
37339;SDS011;23223;51.006;7.610;2023-07-29T05:20:54;2.28;;;1.55;;
37339;SDS011;23223;51.006;7.610;2023-07-29T05:23:20;3.53;;;1.90;;
37339;SDS011;23223;51.006;7.610;2023-07-29T05:25:47;3.15;;;2.35;;
37339;SDS011;23223;51.006;7.610;2023-07-29T05:28:13;3.50;;;2.88;;
37339;SDS011;23223;51.006;7.610;2023-07-29T05:30:39;3.20;;;2.90;;
37339;SDS011;23223;51.006;7.610;2023-07-29T05:33:05;4.47;;;3.45;;
37339;SDS011;23223;51.006;7.610;2023-07-29T05:35:34;4.20;;;3.22;;
37339;SDS011;23223;51.006;7.610;2023-07-29T05:38:00;4.13;;;3.72;;
37339;SDS011;23223;51.006;7.610;2023-07-29T05:40:28;4.80;;;4.03;;
37339;SDS011;23223;51.006;7.610;2023-07-29T05:42:54;6.15;;;4.80;;
37339;SDS011;23223;51.006;7.610;2023-07-29T05:45:21;4.50;;;3.97;;
37339;SDS011;23223;51.006;7.610;2023-07-29T05:47:47;5.43;;;3.42;;
37339;SDS011;23223;51.006;7.610;2023-07-29T05:50:14;5.78;;;4.68;;
37339;SDS011;23223;51.006;7.610;2023-07-29T05:52:41;5.85;;;4.78;;
37339;SDS011;23223;51.006;7.610;2023-07-29T05:55:06;5.60;;;4.75;;
37339;SDS011;23223;51.006;7.610;2023-07-29T05:57:33;6.03;;;5.53;;
37339;SDS011;23223;51.006;7.610;2023-07-29T05:59:59;7.55;;;4.80;;
37339;SDS011;23223;51.006;7.610;2023-07-29T06:02:26;6.63;;;5.93;;
37339;SDS011;23223;51.006;7.610;2023-07-29T06:04:52;6.85;;;6.05;;
37339;SDS011;23223;51.006;7.610;2023-07-29T06:07:19;6.20;;;5.60;;
37339;SDS011;23223;51.006;7.610;2023-07-29T06:09:45;6.28;;;5.78;;
37339;SDS011;23223;51.006;7.610;2023-07-29T06:12:11;6.93;;;6.25;;
37339;SDS011;23223;51.006;7.610;2023-07-29T06:14:38;5.22;;;4.63;;
37339;SDS011;23223;51.006;7.610;2023-07-29T06:17:04;6.55;;;4.22;;
37339;SDS011;23223;51.006;7.610;2023-07-29T06:19:32;6.22;;;5.72;;
37339;SDS011;23223;51.006;7.610;2023-07-29T06:21:58;6.15;;;5.55;;
37339;SDS011;23223;51.006;7.610;2023-07-29T06:24:26;7.38;;;6.65;;
37339;SDS011;23223;51.006;7.610;2023-07-29T06:26:52;6.30;;;5.70;;
37339;SDS011;23223;51.006;7.610;2023-07-29T06:29:19;10.07;;;6.10;;
37339;SDS011;23223;51.006;7.610;2023-07-29T06:31:45;6.07;;;5.47;;
37339;SDS011;23223;51.006;7.610;2023-07-29T06:34:12;7.03;;;5.93;;
37339;SDS011;23223;51.006;7.610;2023-07-29T06:36:39;5.70;;;5.10;;
37339;SDS011;23223;51.006;7.610;2023-07-29T06:39:07;6.80;;;6.20;;
37339;SDS011;23223;51.006;7.610;2023-07-29T06:41:33;6.28;;;5.70;;
37339;SDS011;23223;51.006;7.610;2023-07-29T06:44:00;6.90;;;4.93;;
37339;SDS011;23223;51.006;7.610;2023-07-29T06:46:26;5.72;;;5.22;;
37339;SDS011;23223;51.006;7.610;2023-07-29T06:48:52;5.25;;;4.45;;
37339;SDS011;23223;51.006;7.610;2023-07-29T06:51:18;5.18;;;4.78;;
37339;SDS011;23223;51.006;7.610;2023-07-29T06:53:44;5.00;;;4.60;;
37339;SDS011;23223;51.006;7.610;2023-07-29T06:56:11;10.00;;;5.43;;
37339;SDS011;23223;51.006;7.610;2023-07-29T06:58:38;7.03;;;5.60;;
37339;SDS011;23223;51.006;7.610;2023-07-29T07:01:04;5.88;;;5.35;;
37339;SDS011;23223;51.006;7.610;2023-07-29T07:03:31;5.57;;;5.07;;
37339;SDS011;23223;51.006;7.610;2023-07-29T07:05:58;8.73;;;5.78;;
37339;SDS011;23223;51.006;7.610;2023-07-29T07:08:24;5.40;;;4.90;;
37339;SDS011;23223;51.006;7.610;2023-07-29T07:10:51;4.90;;;4.50;;
37339;SDS011;23223;51.006;7.610;2023-07-29T07:13:17;5.80;;;5.05;;
37339;SDS011;23223;51.006;7.610;2023-07-29T07:15:44;6.88;;;4.32;;
37339;SDS011;23223;51.006;7.610;2023-07-29T07:18:10;5.15;;;4.15;;
37339;SDS011;23223;51.006;7.610;2023-07-29T07:20:38;4.90;;;4.50;;
37339;SDS011;23223;51.006;7.610;2023-07-29T07:23:04;4.85;;;4.45;;
37339;SDS011;23223;51.006;7.610;2023-07-29T07:25:33;5.75;;;5.20;;
37339;SDS011;23223;51.006;7.610;2023-07-29T07:28:01;5.25;;;4.20;;
37339;SDS011;23223;51.006;7.610;2023-07-29T07:30:28;5.30;;;3.25;;
37339;SDS011;23223;51.006;7.610;2023-07-29T07:32:54;3.75;;;2.75;;
37339;SDS011;23223;51.006;7.610;2023-07-29T07:35:21;3.22;;;2.85;;
37339;SDS011;23223;51.006;7.610;2023-07-29T07:37:47;4.93;;;2.80;;
37339;SDS011;23223;51.006;7.610;2023-07-29T07:40:14;3.92;;;3.30;;
37339;SDS011;23223;51.006;7.610;2023-07-29T07:42:40;2.40;;;2.17;;
37339;SDS011;23223;51.006;7.610;2023-07-29T07:45:06;3.17;;;2.45;;
37339;SDS011;23223;51.006;7.610;2023-07-29T07:47:33;3.15;;;2.58;;
37339;SDS011;23223;51.006;7.610;2023-07-29T07:49:59;2.30;;;2.10;;
37339;SDS011;23223;51.006;7.610;2023-07-29T07:52:26;3.28;;;2.42;;
37339;SDS011;23223;51.006;7.610;2023-07-29T07:54:53;3.55;;;2.40;;
37339;SDS011;23223;51.006;7.610;2023-07-29T07:57:20;3.75;;;2.08;;
37339;SDS011;23223;51.006;7.610;2023-07-29T07:59:50;2.20;;;1.85;;
37339;SDS011;23223;51.006;7.610;2023-07-29T08:02:18;2.72;;;1.55;;
37339;SDS011;23223;51.006;7.610;2023-07-29T08:04:45;4.05;;;2.10;;
37339;SDS011;23223;51.006;7.610;2023-07-29T08:07:12;1.95;;;1.65;;
37339;SDS011;23223;51.006;7.610;2023-07-29T08:09:39;4.43;;;1.70;;
37339;SDS011;23223;51.006;7.610;2023-07-29T08:12:05;5.72;;;1.90;;
37339;SDS011;23223;51.006;7.610;2023-07-29T08:14:31;2.20;;;1.65;;
37339;SDS011;23223;51.006;7.610;2023-07-29T08:16:58;2.15;;;1.58;;
37339;SDS011;23223;51.006;7.610;2023-07-29T08:19:23;3.67;;;2.33;;
37339;SDS011;23223;51.006;7.610;2023-07-29T08:21:49;2.15;;;1.77;;
37339;SDS011;23223;51.006;7.610;2023-07-29T08:24:15;5.45;;;1.90;;
37339;SDS011;23223;51.006;7.610;2023-07-29T08:26:41;2.85;;;1.98;;
37339;SDS011;23223;51.006;7.610;2023-07-29T08:29:07;1.70;;;1.60;;
37339;SDS011;23223;51.006;7.610;2023-07-29T08:31:33;2.28;;;1.58;;
37339;SDS011;23223;51.006;7.610;2023-07-29T08:34:00;4.45;;;1.40;;
37339;SDS011;23223;51.006;7.610;2023-07-29T08:36:26;3.33;;;1.50;;
37339;SDS011;23223;51.006;7.610;2023-07-29T08:38:52;2.33;;;1.30;;
37339;SDS011;23223;51.006;7.610;2023-07-29T08:41:29;1.73;;;1.30;;
37339;SDS011;23223;51.006;7.610;2023-07-29T08:46:47;1.75;;;1.30;;
37339;SDS011;23223;51.006;7.610;2023-07-29T08:49:15;4.63;;;1.52;;
37339;SDS011;23223;51.006;7.610;2023-07-29T08:51:44;2.45;;;1.52;;
37339;SDS011;23223;51.006;7.610;2023-07-29T08:54:15;1.67;;;1.13;;
37339;SDS011;23223;51.006;7.610;2023-07-29T08:56:41;2.00;;;1.50;;
37339;SDS011;23223;51.006;7.610;2023-07-29T08:59:09;2.65;;;1.50;;
37339;SDS011;23223;51.006;7.610;2023-07-29T09:01:38;1.42;;;1.23;;
37339;SDS011;23223;51.006;7.610;2023-07-29T09:04:04;1.50;;;1.33;;
37339;SDS011;23223;51.006;7.610;2023-07-29T09:06:31;1.38;;;1.27;;
37339;SDS011;23223;51.006;7.610;2023-07-29T09:08:58;1.25;;;0.98;;
37339;SDS011;23223;51.006;7.610;2023-07-29T09:11:25;1.13;;;0.77;;
37339;SDS011;23223;51.006;7.610;2023-07-29T09:13:52;2.58;;;1.00;;
37339;SDS011;23223;51.006;7.610;2023-07-29T09:16:18;1.55;;;1.10;;
37339;SDS011;23223;51.006;7.610;2023-07-29T09:18:47;1.30;;;1.00;;
37339;SDS011;23223;51.006;7.610;2023-07-29T09:21:15;1.25;;;0.90;;
37339;SDS011;23223;51.006;7.610;2023-07-29T09:23:42;2.15;;;0.95;;
37339;SDS011;23223;51.006;7.610;2023-07-29T09:26:09;3.03;;;1.00;;
37339;SDS011;23223;51.006;7.610;2023-07-29T09:28:35;3.47;;;1.33;;
37339;SDS011;23223;51.006;7.610;2023-07-29T09:31:03;1.33;;;1.05;;
37339;SDS011;23223;51.006;7.610;2023-07-29T09:33:29;2.00;;;1.00;;
37339;SDS011;23223;51.006;7.610;2023-07-29T09:36:00;2.13;;;0.93;;
37339;SDS011;23223;51.006;7.610;2023-07-29T09:38:26;0.85;;;0.70;;
37339;SDS011;23223;51.006;7.610;2023-07-29T09:40:56;2.65;;;1.20;;
37339;SDS011;23223;51.006;7.610;2023-07-29T09:43:29;3.08;;;1.45;;
37339;SDS011;23223;51.006;7.610;2023-07-29T09:46:00;0.95;;;0.90;;
37339;SDS011;23223;51.006;7.610;2023-07-29T09:48:26;1.63;;;1.20;;
37339;SDS011;23223;51.006;7.610;2023-07-29T09:50:53;1.70;;;1.10;;
37339;SDS011;23223;51.006;7.610;2023-07-29T09:53:22;1.58;;;1.48;;
37339;SDS011;23223;51.006;7.610;2023-07-29T09:55:48;1.83;;;0.95;;
37339;SDS011;23223;51.006;7.610;2023-07-29T09:58:15;3.70;;;1.92;;
37339;SDS011;23223;51.006;7.610;2023-07-29T10:00:51;3.40;;;0.90;;
37339;SDS011;23223;51.006;7.610;2023-07-29T10:03:17;0.80;;;0.80;;
37339;SDS011;23223;51.006;7.610;2023-07-29T10:05:45;1.08;;;0.90;;
37339;SDS011;23223;51.006;7.610;2023-07-29T10:08:11;1.27;;;1.17;;
37339;SDS011;23223;51.006;7.610;2023-07-29T10:10:39;3.28;;;1.35;;
37339;SDS011;23223;51.006;7.610;2023-07-29T10:13:08;5.90;;;1.42;;
37339;SDS011;23223;51.006;7.610;2023-07-29T10:15:34;1.80;;;1.23;;
37339;SDS011;23223;51.006;7.610;2023-07-29T10:18:01;2.75;;;1.13;;
37339;SDS011;23223;51.006;7.610;2023-07-29T10:20:29;1.17;;;1.08;;
37339;SDS011;23223;51.006;7.610;2023-07-29T10:22:56;2.47;;;1.10;;
37339;SDS011;23223;51.006;7.610;2023-07-29T10:25:25;1.42;;;1.10;;
37339;SDS011;23223;51.006;7.610;2023-07-29T10:28:01;0.88;;;0.85;;
37339;SDS011;23223;51.006;7.610;2023-07-29T10:30:30;3.72;;;1.20;;
37339;SDS011;23223;51.006;7.610;2023-07-29T10:32:58;2.00;;;1.52;;
37339;SDS011;23223;51.006;7.610;2023-07-29T10:35:26;2.42;;;1.00;;
37339;SDS011;23223;51.006;7.610;2023-07-29T10:37:52;1.27;;;1.10;;
37339;SDS011;23223;51.006;7.610;2023-07-29T10:40:19;3.42;;;1.17;;
37339;SDS011;23223;51.006;7.610;2023-07-29T10:45:26;2.22;;;1.13;;
37339;SDS011;23223;51.006;7.610;2023-07-29T10:48:00;4.78;;;1.40;;
37339;SDS011;23223;51.006;7.610;2023-07-29T10:50:37;1.67;;;1.00;;
37339;SDS011;23223;51.006;7.610;2023-07-29T10:53:02;1.38;;;1.00;;
37339;SDS011;23223;51.006;7.610;2023-07-29T10:55:29;2.13;;;1.38;;
37339;SDS011;23223;51.006;7.610;2023-07-29T10:58:05;7.00;;;6.30;;
37339;SDS011;23223;51.006;7.610;2023-07-29T11:00:31;3.78;;;1.95;;
37339;SDS011;23223;51.006;7.610;2023-07-29T11:03:01;4.18;;;2.15;;
37339;SDS011;23223;51.006;7.610;2023-07-29T11:05:46;1.90;;;1.80;;
37339;SDS011;23223;51.006;7.610;2023-07-29T11:08:29;4.80;;;2.30;;
37339;SDS011;23223;51.006;7.610;2023-07-29T11:13:32;2.72;;;2.53;;
37339;SDS011;23223;51.006;7.610;2023-07-29T11:16:02;12.18;;;8.77;;
37339;SDS011;23223;51.006;7.610;2023-07-29T11:18:29;7.97;;;5.53;;
37339;SDS011;23223;51.006;7.610;2023-07-29T11:21:02;6.90;;;5.05;;
37339;SDS011;23223;51.006;7.610;2023-07-29T11:23:35;2.05;;;1.70;;
37339;SDS011;23223;51.006;7.610;2023-07-29T11:26:02;2.53;;;1.73;;
37339;SDS011;23223;51.006;7.610;2023-07-29T11:28:28;5.07;;;3.45;;
37339;SDS011;23223;51.006;7.610;2023-07-29T11:30:55;1.70;;;1.52;;
37339;SDS011;23223;51.006;7.610;2023-07-29T11:33:26;11.02;;;8.32;;
37339;SDS011;23223;51.006;7.610;2023-07-29T11:35:53;2.05;;;1.52;;
37339;SDS011;23223;51.006;7.610;2023-07-29T11:38:20;1.30;;;1.20;;
37339;SDS011;23223;51.006;7.610;2023-07-29T11:40:56;5.90;;;3.75;;
37339;SDS011;23223;51.006;7.610;2023-07-29T11:43:23;1.95;;;1.30;;
37339;SDS011;23223;51.006;7.610;2023-07-29T11:45:48;4.03;;;2.47;;
37339;SDS011;23223;51.006;7.610;2023-07-29T11:48:14;2.63;;;2.38;;
37339;SDS011;23223;51.006;7.610;2023-07-29T11:50:40;1.58;;;1.42;;
37339;SDS011;23223;51.006;7.610;2023-07-29T11:53:06;4.00;;;3.33;;
37339;SDS011;23223;51.006;7.610;2023-07-29T11:55:31;3.67;;;2.03;;
37339;SDS011;23223;51.006;7.610;2023-07-29T11:57:58;10.77;;;7.88;;
37339;SDS011;23223;51.006;7.610;2023-07-29T12:00:26;10.05;;;6.85;;
37339;SDS011;23223;51.006;7.610;2023-07-29T12:02:51;2.58;;;1.60;;
37339;SDS011;23223;51.006;7.610;2023-07-29T12:05:17;4.82;;;3.53;;
37339;SDS011;23223;51.006;7.610;2023-07-29T12:07:46;3.75;;;2.70;;
37339;SDS011;23223;51.006;7.610;2023-07-29T12:10:12;3.10;;;1.45;;
37339;SDS011;23223;51.006;7.610;2023-07-29T12:12:47;1.90;;;1.70;;
37339;SDS011;23223;51.006;7.610;2023-07-29T12:15:22;4.57;;;2.50;;
37339;SDS011;23223;51.006;7.610;2023-07-29T12:17:48;1.88;;;1.52;;
37339;SDS011;23223;51.006;7.610;2023-07-29T12:20:13;6.15;;;3.97;;
37339;SDS011;23223;51.006;7.610;2023-07-29T12:22:39;2.42;;;2.22;;
37339;SDS011;23223;51.006;7.610;2023-07-29T12:25:05;2.00;;;1.90;;
37339;SDS011;23223;51.006;7.610;2023-07-29T12:27:31;4.25;;;1.90;;
37339;SDS011;23223;51.006;7.610;2023-07-29T12:29:57;5.80;;;4.47;;
37339;SDS011;23223;51.006;7.610;2023-07-29T12:32:24;6.15;;;2.15;;
37339;SDS011;23223;51.006;7.610;2023-07-29T12:34:52;2.25;;;1.90;;
37339;SDS011;23223;51.006;7.610;2023-07-29T12:37:18;1.85;;;1.70;;
37339;SDS011;23223;51.006;7.610;2023-07-29T12:39:44;1.63;;;1.33;;
37339;SDS011;23223;51.006;7.610;2023-07-29T12:42:10;1.65;;;1.50;;
37339;SDS011;23223;51.006;7.610;2023-07-29T12:44:36;1.48;;;1.20;;
37339;SDS011;23223;51.006;7.610;2023-07-29T12:47:02;4.32;;;1.33;;
37339;SDS011;23223;51.006;7.610;2023-07-29T12:49:29;1.30;;;1.20;;
37339;SDS011;23223;51.006;7.610;2023-07-29T12:51:55;1.00;;;1.00;;
37339;SDS011;23223;51.006;7.610;2023-07-29T12:54:21;1.35;;;1.25;;
37339;SDS011;23223;51.006;7.610;2023-07-29T12:56:47;1.60;;;1.10;;
37339;SDS011;23223;51.006;7.610;2023-07-29T12:59:12;2.28;;;1.20;;
37339;SDS011;23223;51.006;7.610;2023-07-29T13:01:38;2.00;;;1.38;;
37339;SDS011;23223;51.006;7.610;2023-07-29T13:04:04;1.42;;;1.05;;
37339;SDS011;23223;51.006;7.610;2023-07-29T13:06:29;1.40;;;1.20;;
37339;SDS011;23223;51.006;7.610;2023-07-29T13:08:55;4.10;;;1.55;;
37339;SDS011;23223;51.006;7.610;2023-07-29T13:11:21;2.42;;;1.45;;
37339;SDS011;23223;51.006;7.610;2023-07-29T13:13:46;1.83;;;1.33;;
37339;SDS011;23223;51.006;7.610;2023-07-29T13:16:12;2.03;;;1.33;;
37339;SDS011;23223;51.006;7.610;2023-07-29T13:18:38;1.92;;;1.20;;
37339;SDS011;23223;51.006;7.610;2023-07-29T13:21:04;2.83;;;0.93;;
37339;SDS011;23223;51.006;7.610;2023-07-29T13:23:30;1.65;;;1.25;;
37339;SDS011;23223;51.006;7.610;2023-07-29T13:25:55;4.22;;;1.42;;
37339;SDS011;23223;51.006;7.610;2023-07-29T13:28:22;2.25;;;1.13;;
37339;SDS011;23223;51.006;7.610;2023-07-29T13:30:48;1.48;;;1.38;;
37339;SDS011;23223;51.006;7.610;2023-07-29T13:33:14;1.75;;;1.25;;
37339;SDS011;23223;51.006;7.610;2023-07-29T13:35:39;1.42;;;1.05;;
37339;SDS011;23223;51.006;7.610;2023-07-29T13:38:05;1.30;;;1.20;;
37339;SDS011;23223;51.006;7.610;2023-07-29T13:40:30;1.35;;;1.20;;
37339;SDS011;23223;51.006;7.610;2023-07-29T13:42:56;1.30;;;1.00;;
37339;SDS011;23223;51.006;7.610;2023-07-29T13:45:22;1.30;;;1.20;;
37339;SDS011;23223;51.006;7.610;2023-07-29T13:47:48;3.22;;;1.20;;
37339;SDS011;23223;51.006;7.610;2023-07-29T13:50:15;3.33;;;1.55;;
37339;SDS011;23223;51.006;7.610;2023-07-29T13:52:41;1.67;;;1.48;;
37339;SDS011;23223;51.006;7.610;2023-07-29T13:55:06;4.35;;;1.48;;
37339;SDS011;23223;51.006;7.610;2023-07-29T13:57:32;1.52;;;1.30;;
37339;SDS011;23223;51.006;7.610;2023-07-29T13:59:57;1.50;;;1.10;;
37339;SDS011;23223;51.006;7.610;2023-07-29T14:02:23;1.40;;;1.20;;
37339;SDS011;23223;51.006;7.610;2023-07-29T14:04:51;2.60;;;1.48;;
37339;SDS011;23223;51.006;7.610;2023-07-29T14:07:16;1.30;;;1.05;;
37339;SDS011;23223;51.006;7.610;2023-07-29T14:09:42;1.52;;;1.42;;
37339;SDS011;23223;51.006;7.610;2023-07-29T14:12:08;3.50;;;1.27;;
37339;SDS011;23223;51.006;7.610;2023-07-29T14:14:37;1.77;;;1.40;;
37339;SDS011;23223;51.006;7.610;2023-07-29T14:17:03;1.85;;;1.30;;
37339;SDS011;23223;51.006;7.610;2023-07-29T14:19:29;1.58;;;1.35;;
37339;SDS011;23223;51.006;7.610;2023-07-29T14:21:54;2.75;;;1.33;;
37339;SDS011;23223;51.006;7.610;2023-07-29T14:24:20;1.33;;;1.20;;
37339;SDS011;23223;51.006;7.610;2023-07-29T14:26:47;2.28;;;1.10;;
37339;SDS011;23223;51.006;7.610;2023-07-29T14:29:12;2.47;;;1.02;;
37339;SDS011;23223;51.006;7.610;2023-07-29T14:31:38;1.60;;;1.50;;
37339;SDS011;23223;51.006;7.610;2023-07-29T14:34:03;1.55;;;1.42;;
37339;SDS011;23223;51.006;7.610;2023-07-29T14:36:29;1.70;;;1.17;;
37339;SDS011;23223;51.006;7.610;2023-07-29T14:38:54;3.97;;;1.40;;
37339;SDS011;23223;51.006;7.610;2023-07-29T14:41:20;1.92;;;1.40;;
37339;SDS011;23223;51.006;7.610;2023-07-29T14:43:45;2.53;;;1.55;;
37339;SDS011;23223;51.006;7.610;2023-07-29T14:46:11;5.28;;;1.70;;
37339;SDS011;23223;51.006;7.610;2023-07-29T14:48:37;3.03;;;1.27;;
37339;SDS011;23223;51.006;7.610;2023-07-29T14:51:02;1.30;;;1.20;;
37339;SDS011;23223;51.006;7.610;2023-07-29T14:53:28;3.70;;;1.40;;
37339;SDS011;23223;51.006;7.610;2023-07-29T14:55:53;3.95;;;1.52;;
37339;SDS011;23223;51.006;7.610;2023-07-29T14:58:19;2.10;;;1.42;;
37339;SDS011;23223;51.006;7.610;2023-07-29T15:00:45;1.42;;;1.27;;
37339;SDS011;23223;51.006;7.610;2023-07-29T15:03:10;1.13;;;1.05;;
37339;SDS011;23223;51.006;7.610;2023-07-29T15:05:36;1.48;;;1.38;;
37339;SDS011;23223;51.006;7.610;2023-07-29T15:08:01;1.60;;;1.50;;